Time;durP1;ratioP1;P1;durP2;ratioP2;P2;SDS_P1;SDS_P2;PMS_P1;PMS_P2;Temp;Humidity;BMP_temperature;BMP_pressure;BME280_temperature;BME280_humidity;BME280_pressure;Samples;Min_cycle;Max_cycle;Signal;HPM_P1;HPM_P2
2022/03/09 00:02:05;;;;;;;6.10;5.50;;;2.30;46.60;;;;;;6164750;28;20458;-60
2022/03/09 00:05:08;;;;;;;6.17;5.40;;;2.30;46.60;;;;;;6168133;28;20454;-59
2022/03/09 00:08:12;;;;;;;9.10;6.23;;;2.30;47.50;;;;;;6153172;28;20443;-60
2022/03/09 00:11:16;;;;;;;7.63;6.83;;;2.30;46.70;;;;;;6164472;28;20450;-60
2022/03/09 00:14:19;;;;;;;10.93;6.70;;;2.30;46.70;;;;;;6177427;28;20918;-59
2022/03/09 00:17:22;;;;;;;8.60;6.27;;;2.30;46.80;;;;;;6176868;28;20450;-59
2022/03/09 00:20:26;;;;;;;6.90;6.20;;;2.30;46.80;;;;;;6176763;28;20458;-59
2022/03/09 00:23:29;;;;;;;7.80;6.07;;;2.30;46.70;;;;;;6176610;28;20484;-59
2022/03/09 00:26:33;;;;;;;10.63;5.60;;;2.40;47.30;;;;;;6166146;28;20478;-59
2022/03/09 00:29:37;;;;;;;10.13;5.53;;;2.30;46.80;;;;;;6152651;28;20471;-59
2022/03/09 00:32:41;;;;;;;9.20;6.40;;;2.30;46.90;;;;;;6152374;28;20477;-59
2022/03/09 00:35:44;;;;;;;6.13;5.53;;;2.30;47.00;;;;;;6155056;28;20490;-59
2022/03/09 00:38:47;;;;;;;7.63;6.60;;;2.20;47.20;;;;;;6167858;28;20478;-59
2022/03/09 00:41:52;;;;;;;10.00;6.37;;;2.20;47.80;;;;;;6155789;28;20498;-58
2022/03/09 00:44:55;;;;;;;6.97;5.83;;;2.30;48.00;;;;;;6153221;28;20475;-58
2022/03/09 00:47:58;;;;;;;8.80;5.83;;;2.30;48.00;;;;;;6152818;28;20470;-59
2022/03/09 00:51:01;;;;;;;6.50;5.90;;;2.20;47.90;;;;;;6157098;28;20475;-58
2022/03/09 00:54:05;;;;;;;8.77;6.60;;;2.20;47.90;;;;;;6157267;28;20475;-57
2022/03/09 00:57:09;;;;;;;8.90;6.43;;;2.20;48.00;;;;;;6157247;28;20474;-59
2022/03/09 01:00:15;;;;;;;7.07;6.37;;;2.20;48.50;;;;;;6147739;28;20471;-58
2022/03/09 01:03:18;;;;;;;7.83;5.60;;;2.20;47.90;;;;;;6157291;28;20475;-59
2022/03/09 01:06:22;;;;;;;6.03;5.43;;;2.10;48.00;;;;;;6156886;28;20788;-59
2022/03/09 01:09:25;;;;;;;8.57;6.20;;;2.10;48.00;;;;;;6157059;28;20554;-59
2022/03/09 01:12:29;;;;;;;12.63;9.53;;;2.10;48.20;;;;;;6157045;28;20490;-58
2022/03/09 01:15:33;;;;;;;7.57;6.87;;;2.20;48.40;;;;;;6157481;28;20475;-58
2022/03/09 01:18:36;;;;;;;11.20;6.50;;;2.20;48.30;;;;;;6156932;28;20482;-59
2022/03/09 01:21:39;;;;;;;7.20;6.10;;;2.20;48.40;;;;;;6157069;28;20971;-58
2022/03/09 01:24:42;;;;;;;7.10;5.40;;;2.20;48.20;;;;;;6156981;28;20474;-58
2022/03/09 01:27:47;;;;;;;5.93;5.37;;;2.20;48.40;;;;;;6156742;28;20482;-59
2022/03/09 01:30:50;;;;;;;9.93;5.70;;;2.10;48.80;;;;;;6156728;28;20475;-58
2022/03/09 01:33:53;;;;;;;7.43;5.90;;;2.10;48.80;;;;;;6156608;28;20603;-59
2022/03/09 01:36:56;;;;;;;8.20;5.47;;;2.10;49.00;;;;;;6156315;28;20482;-58
2022/03/09 01:40:00;;;;;;;6.90;6.07;;;2.00;49.20;;;;;;6156042;28;20865;-59
2022/03/09 01:43:04;;;;;;;9.10;6.37;;;2.00;49.20;;;;;;6156107;28;20804;-59
2022/03/09 01:46:07;;;;;;;8.60;6.63;;;1.90;49.20;;;;;;6156164;28;20471;-58
2022/03/09 01:49:12;;;;;;;7.07;6.33;;;1.90;49.40;;;;;;6155813;28;20581;-58
2022/03/09 01:52:15;;;;;;;6.47;5.90;;;1.90;49.70;;;;;;6155882;28;20485;-58
2022/03/09 01:55:18;;;;;;;5.77;5.27;;;1.90;49.80;;;;;;6156665;28;20483;-58
2022/03/09 01:58:22;;;;;;;9.80;6.53;;;1.90;50.00;;;;;;6155656;28;20487;-58
2022/03/09 02:01:26;;;;;;;9.87;5.57;;;1.90;49.90;;;;;;6154342;28;20471;-58
2022/03/09 02:04:29;;;;;;;8.07;5.17;;;1.90;50.10;;;;;;6151171;28;20474;-60
2022/03/09 02:10:55;;;;;;;8.13;5.27;;;1.80;50.30;;;;;;6155735;28;20487;-58
2022/03/09 02:13:59;;;;;;;8.23;5.60;;;1.80;50.40;;;;;;6155758;28;20482;-58
2022/03/09 02:17:05;;;;;;;6.67;4.90;;;1.80;50.40;;;;;;6155700;28;20467;-59
2022/03/09 02:20:09;;;;;;;7.23;5.33;;;1.70;50.40;;;;;;6155043;28;20487;-59
2022/03/09 02:23:13;;;;;;;7.33;6.23;;;1.70;50.70;;;;;;6155402;28;20447;-59
2022/03/09 02:26:16;;;;;;;5.17;4.40;;;1.80;50.90;;;;;;6155105;28;20447;-59
2022/03/09 02:29:20;;;;;;;5.00;4.50;;;1.80;50.70;;;;;;6155134;28;20463;-59
2022/03/09 02:32:23;;;;;;;7.87;5.00;;;1.70;51.10;;;;;;6154636;28;20447;-59
2022/03/09 02:35:26;;;;;;;6.30;4.80;;;1.70;51.10;;;;;;6154950;28;20790;-59
2022/03/09 02:38:31;;;;;;;7.20;5.23;;;1.70;51.20;;;;;;6154798;28;21349;-60
2022/03/09 02:41:34;;;;;;;6.33;5.47;;;1.60;51.40;;;;;;6154569;28;21002;-59
2022/03/09 02:44:37;;;;;;;6.10;5.30;;;1.50;51.80;;;;;;6154923;28;20462;-59
2022/03/09 02:47:42;;;;;;;5.70;5.20;;;1.40;52.20;;;;;;6154694;28;20956;-60
2022/03/09 02:50:47;;;;;;;6.03;5.00;;;1.50;52.50;;;;;;6154286;28;20487;-58
2022/03/09 02:53:51;;;;;;;8.63;5.50;;;1.50;52.40;;;;;;6155270;28;20475;-58
2022/03/09 02:56:54;;;;;;;6.23;5.63;;;1.50;52.50;;;;;;6156942;28;20471;-61
2022/03/09 02:59:57;;;;;;;10.40;6.10;;;1.50;52.50;;;;;;6154267;28;20486;-61
2022/03/09 03:03:01;;;;;;;7.37;5.93;;;1.50;52.30;;;;;;6154167;28;20483;-61
2022/03/09 03:06:04;;;;;;;11.77;6.60;;;1.60;52.20;;;;;;6154188;28;20841;-62
2022/03/09 03:09:09;;;;;;;6.73;5.80;;;1.60;51.90;;;;;;6154317;28;20489;-62
2022/03/09 03:12:12;;;;;;;6.63;5.80;;;1.60;51.70;;;;;;6154037;28;20518;-62
2022/03/09 03:15:15;;;;;;;6.63;6.00;;;1.60;51.90;;;;;;6153925;28;20471;-59
2022/03/09 03:18:18;;;;;;;5.73;5.23;;;1.60;52.00;;;;;;6154117;28;20987;-59
2022/03/09 03:21:22;;;;;;;5.83;5.20;;;1.60;52.00;;;;;;6153912;28;20968;-61
2022/03/09 03:24:28;;;;;;;10.70;5.83;;;1.60;52.40;;;;;;6154266;28;20485;-61
2022/03/09 03:27:31;;;;;;;5.93;5.30;;;1.60;52.60;;;;;;6153764;28;20486;-62
2022/03/09 03:30:34;;;;;;;7.20;5.40;;;1.60;52.90;;;;;;6153917;28;20490;-61
2022/03/09 03:33:37;;;;;;;6.63;5.00;;;1.50;52.60;;;;;;6153972;28;20931;-61
2022/03/09 03:36:40;;;;;;;8.00;5.50;;;1.50;52.90;;;;;;6153610;28;20563;-62
2022/03/09 03:39:45;;;;;;;7.00;6.07;;;1.50;53.00;;;;;;6154190;28;20487;-61
2022/03/09 03:42:48;;;;;;;6.70;6.00;;;1.50;53.10;;;;;;6153719;28;20818;-61
2022/03/09 03:45:51;;;;;;;7.47;6.70;;;1.50;53.40;;;;;;6153642;28;21023;-61
2022/03/09 03:48:54;;;;;;;6.83;5.93;;;1.50;53.10;;;;;;6153258;28;20493;-61
2022/03/09 03:51:57;;;;;;;6.50;5.53;;;1.60;53.20;;;;;;6153330;28;20498;-61
2022/03/09 03:55:02;;;;;;;6.47;5.83;;;1.60;53.20;;;;;;6153738;28;20487;-61
2022/03/09 03:58:05;;;;;;;5.70;5.20;;;1.60;53.00;;;;;;6153865;28;20479;-60
2022/03/09 04:01:08;;;;;;;7.70;7.00;;;1.60;53.10;;;;;;6153641;28;20479;-62
2022/03/09 04:04:11;;;;;;;9.17;7.20;;;1.50;53.20;;;;;;6153643;28;20554;-61
2022/03/09 04:07:14;;;;;;;7.93;6.90;;;1.50;53.60;;;;;;6153321;28;20475;-60
2022/03/09 04:10:19;;;;;;;10.70;7.10;;;1.40;53.90;;;;;;6153089;28;20817;-58
2022/03/09 04:13:22;;;;;;;9.10;7.17;;;1.40;54.00;;;;;;6144104;28;20475;-59
2022/03/09 04:16:25;;;;;;;8.20;6.90;;;1.30;53.70;;;;;;6153083;28;20493;-59
2022/03/09 04:19:31;;;;;;;8.10;7.30;;;1.30;54.00;;;;;;6153162;28;20514;-59
2022/03/09 04:22:34;;;;;;;7.83;6.90;;;1.20;54.30;;;;;;6152829;28;20490;-59
2022/03/09 04:25:39;;;;;;;7.23;6.53;;;1.30;54.30;;;;;;6157487;28;20486;-59
2022/03/09 04:28:42;;;;;;;7.03;6.33;;;1.30;54.40;;;;;;6158045;28;20479;-58
2022/03/09 04:31:46;;;;;;;8.97;6.70;;;1.30;54.40;;;;;;6157607;28;20482;-59
2022/03/09 04:34:49;;;;;;;6.70;6.03;;;1.20;54.50;;;;;;6157602;28;20977;-60
2022/03/09 04:37:52;;;;;;;7.73;6.07;;;1.20;54.60;;;;;;6157703;28;20499;-62
2022/03/09 04:40:56;;;;;;;8.00;6.73;;;1.20;54.80;;;;;;6157508;28;20498;-59
2022/03/09 04:43:59;;;;;;;6.63;5.10;;;1.20;55.00;;;;;;6157992;28;20474;-59
2022/03/09 04:47:03;;;;;;;6.53;5.83;;;1.20;55.20;;;;;;6157855;28;21034;-60
2022/03/09 04:50:07;;;;;;;7.67;5.93;;;1.10;55.10;;;;;;6159716;28;21015;-59
2022/03/09 04:53:11;;;;;;;6.60;5.80;;;1.10;55.10;;;;;;6157960;28;20451;-60
2022/03/09 04:56:17;;;;;;;6.80;5.70;;;1.10;55.20;;;;;;6157383;28;21120;-59
2022/03/09 04:59:20;;;;;;;7.93;6.27;;;1.10;55.30;;;;;;6157373;28;20463;-60
2022/03/09 05:02:23;;;;;;;5.80;5.20;;;1.10;55.40;;;;;;6157278;28;20527;-58
2022/03/09 05:05:27;;;;;;;8.93;6.53;;;1.00;55.60;;;;;;6157192;28;20474;-58
2022/03/09 05:08:30;;;;;;;8.00;6.63;;;1.00;55.70;;;;;;6157234;28;20458;-59
2022/03/09 05:11:34;;;;;;;9.90;6.70;;;1.00;55.90;;;;;;6156923;28;20474;-60
2022/03/09 05:14:37;;;;;;;8.47;6.90;;;1.00;56.00;;;;;;6152351;28;20816;-59
2022/03/09 05:17:41;;;;;;;7.70;5.90;;;1.00;56.00;;;;;;6156774;28;20479;-62
2022/03/09 05:20:44;;;;;;;8.10;6.60;;;0.90;56.10;;;;;;6156954;28;21100;-60
2022/03/09 05:23:47;;;;;;;7.10;6.23;;;0.90;56.00;;;;;;6157811;28;20813;-62
2022/03/09 05:26:52;;;;;;;11.17;6.93;;;0.90;56.40;;;;;;6156784;28;20470;-58
2022/03/09 05:29:55;;;;;;;9.87;7.07;;;0.90;56.30;;;;;;6156465;28;20483;-59
2022/03/09 05:32:58;;;;;;;6.53;5.93;;;1.00;56.40;;;;;;6156601;28;20939;-59
2022/03/09 05:36:01;;;;;;;8.57;6.13;;;0.90;56.40;;;;;;6155581;28;20979;-59
2022/03/09 05:39:05;;;;;;;7.57;5.67;;;0.90;56.40;;;;;;6156322;28;20570;-61
2022/03/09 05:42:10;;;;;;;10.83;7.60;;;0.90;56.40;;;;;;6156093;28;20482;-60
2022/03/09 05:45:13;;;;;;;8.50;6.57;;;0.90;56.40;;;;;;6156662;28;20475;-60
2022/03/09 05:48:24;;;;;;;6.60;5.90;;;0.90;56.30;;;;;;6156292;28;20561;-59
2022/03/09 05:51:27;;;;;;;10.60;6.70;;;1.00;56.40;;;;;;6156619;28;20491;-58
2022/03/09 05:54:30;;;;;;;10.77;6.17;;;1.00;56.40;;;;;;6156223;28;20601;-61
2022/03/09 05:57:35;;;;;;;10.07;6.93;;;1.00;56.30;;;;;;6156271;28;20475;-61
2022/03/09 06:00:38;;;;;;;9.57;7.20;;;1.00;56.50;;;;;;6155653;28;20775;-61
2022/03/09 06:03:41;;;;;;;10.37;7.77;;;1.00;56.40;;;;;;6156168;28;20489;-59
2022/03/09 06:06:44;;;;;;;9.13;7.07;;;1.00;56.60;;;;;;6156040;28;20490;-59
2022/03/09 06:09:49;;;;;;;8.87;7.10;;;1.00;56.90;;;;;;6155852;28;20486;-59
2022/03/09 06:12:53;;;;;;;15.83;8.13;;;1.00;56.90;;;;;;6155965;28;20475;-59
2022/03/09 06:15:56;;;;;;;14.10;8.80;;;1.10;57.00;;;;;;6155679;28;20478;-59
2022/03/09 06:18:59;;;;;;;14.57;10.77;;;1.10;57.00;;;;;;6155674;28;21012;-58
2022/03/09 06:22:03;;;;;;;16.30;10.13;;;1.20;57.00;;;;;;6155256;28;20494;-58
2022/03/09 06:25:07;;;;;;;12.10;9.50;;;1.20;56.80;;;;;;6155405;28;20478;-59
2022/03/09 06:28:11;;;;;;;17.00;10.30;;;1.30;56.70;;;;;;6154977;28;20854;-59
2022/03/09 06:31:15;;;;;;;15.50;10.17;;;1.40;56.50;;;;;;6155421;28;20526;-59
2022/03/09 06:34:18;;;;;;;11.33;9.10;;;1.40;56.50;;;;;;6156157;28;20480;-59
2022/03/09 06:37:21;;;;;;;19.90;10.23;;;1.50;56.30;;;;;;6154973;28;20475;-60
2022/03/09 06:40:25;;;;;;;14.30;9.00;;;1.50;56.00;;;;;;6154731;28;20478;-58
2022/03/09 06:43:29;;;;;;;12.47;8.53;;;1.60;55.30;;;;;;6155027;28;20478;-59
2022/03/09 06:46:34;;;;;;;11.57;8.87;;;1.60;55.20;;;;;;6154167;28;20483;-60
2022/03/09 06:49:37;;;;;;;12.63;9.03;;;1.70;55.00;;;;;;6154329;28;20487;-58
2022/03/09 06:52:40;;;;;;;10.87;8.67;;;1.80;55.00;;;;;;6154684;28;20967;-58
2022/03/09 06:55:43;;;;;;;12.33;8.37;;;1.80;54.90;;;;;;6154558;28;20490;-58
2022/03/09 06:58:48;;;;;;;14.00;10.33;;;1.90;54.80;;;;;;6154081;28;20483;-59
2022/03/09 07:01:51;;;;;;;17.20;11.03;;;2.00;54.90;;;;;;6154320;28;20491;-59
2022/03/09 07:04:55;;;;;;;11.43;9.70;;;2.10;54.70;;;;;;6155439;28;20995;-59
2022/03/09 07:07:58;;;;;;;12.03;10.07;;;2.20;54.30;;;;;;6155971;28;20491;-58
2022/03/09 07:11:01;;;;;;;14.87;10.93;;;2.30;53.90;;;;;;6154649;29;20766;-59
2022/03/09 07:14:05;;;;;;;13.37;9.53;;;2.30;53.70;;;;;;6154481;28;21006;-58
2022/03/09 07:17:09;;;;;;;16.67;10.17;;;2.40;53.80;;;;;;6155350;28;20823;-58
2022/03/09 07:20:12;;;;;;;10.93;9.77;;;2.50;53.40;;;;;;6154294;28;20463;-58
2022/03/09 07:23:16;;;;;;;11.63;9.57;;;2.60;53.20;;;;;;6154163;28;20484;-60
2022/03/09 07:26:19;;;;;;;9.97;8.97;;;2.70;52.70;;;;;;6155675;28;20452;-57
2022/03/09 07:29:23;;;;;;;11.40;9.80;;;2.80;52.20;;;;;;6153781;28;20486;-58
2022/03/09 07:32:27;;;;;;;14.60;10.87;;;2.90;51.90;;;;;;6154491;28;20447;-59
2022/03/09 07:35:50;;;;;;;12.03;9.10;;;3.10;51.60;;;;;;6153417;28;20598;-59
2022/03/09 07:38:53;;;;;;;13.07;8.90;;;3.30;51.20;;;;;;6154971;28;20485;-58
2022/03/09 07:42:16;;;;;;;10.73;8.40;;;3.60;50.50;;;;;;6158263;28;20547;-58
2022/03/09 07:45:21;;;;;;;9.87;8.87;;;3.90;49.10;;;;;;6165822;28;21195;-61
2022/03/09 07:48:24;;;;;;;12.87;8.63;;;4.10;48.30;;;;;;6160370;28;20795;-62
2022/03/09 07:51:33;;;;;;;13.83;7.90;;;4.30;48.30;;;;;;6163389;28;20530;-60
2022/03/09 07:54:38;;;;;;;11.83;8.43;;;5.90;47.10;;;;;;6163673;28;20474;-61
2022/03/09 07:57:41;;;;;;;10.70;7.80;;;9.60;42.30;;;;;;6164208;28;20478;-61
2022/03/09 08:00:46;;;;;;;10.03;8.63;;;13.30;34.70;;;;;;6162711;28;20486;-61
2022/03/09 08:03:50;;;;;;;8.90;7.97;;;16.20;29.40;;;;;;6156524;28;20496;-61
2022/03/09 08:06:54;;;;;;;11.07;8.90;;;18.20;25.60;;;;;;6165052;28;20976;-60
2022/03/09 08:09:57;;;;;;;14.93;10.47;;;18.90;24.10;;;;;;6163799;28;20478;-61
2022/03/09 08:13:04;;;;;;;13.80;9.40;;;19.20;23.30;;;;;;6165459;28;20470;-61
2022/03/09 08:16:09;;;;;;;12.30;10.97;;;20.80;23.30;;;;;;6153555;28;20569;-61
2022/03/09 08:19:13;;;;;;;11.60;10.40;;;22.10;21.20;;;;;;6153463;28;20249;-62
2022/03/09 08:22:16;;;;;;;12.63;11.27;;;23.20;20.20;;;;;;6153300;29;20235;-61
2022/03/09 08:25:19;;;;;;;13.73;11.70;;;24.10;19.50;;;;;;6165537;28;20698;-61
2022/03/09 08:28:22;;;;;;;15.33;11.77;;;24.40;19.00;;;;;;6175349;28;20253;-65
2022/03/09 08:31:28;;;;;;;14.10;11.87;;;24.90;19.20;;;;;;6175138;28;20271;-61
2022/03/09 08:34:31;;;;;;;12.43;11.07;;;26.80;18.00;;;;;;6175378;28;20734;-65
2022/03/09 08:37:34;;;;;;;12.90;10.80;;;28.00;16.70;;;;;;6173833;28;20241;-65
2022/03/09 08:40:38;;;;;;;12.10;11.00;;;28.60;16.40;;;;;;6154217;29;20245;-64
2022/03/09 08:43:41;;;;;;;11.23;10.30;;;29.00;15.80;;;;;;6156525;28;20620;-63
2022/03/09 08:46:45;;;;;;;11.77;10.47;;;30.10;15.30;;;;;;6157283;28;20226;-64
2022/03/09 08:49:48;;;;;;;10.83;9.77;;;31.20;14.60;;;;;;6157208;28;20239;-63
2022/03/09 08:52:54;;;;;;;11.07;10.07;;;31.40;14.30;;;;;;6168540;28;20312;-60
2022/03/09 08:55:58;;;;;;;16.35;11.82;;;31.60;13.90;;;;;;6176737;28;20226;-60
2022/03/09 08:59:01;;;;;;;12.50;11.30;;;32.20;13.80;;;;;;6176650;28;20398;-60
2022/03/09 09:02:06;;;;;;;13.25;11.77;;;32.00;13.70;;;;;;6176820;28;20245;-60
2022/03/09 09:05:10;;;;;;;11.43;10.02;;;32.70;13.40;;;;;;6176764;28;20312;-60
2022/03/09 09:08:14;;;;;;;10.68;9.40;;;32.30;13.60;;;;;;6177284;28;20202;-60
2022/03/09 09:11:17;;;;;;;10.82;9.93;;;33.50;12.90;;;;;;6177972;28;20198;-61
2022/03/09 09:14:20;;;;;;;10.25;9.23;;;34.60;12.30;;;;;;6157762;28;20214;-61
2022/03/09 09:17:25;;;;;;;11.32;10.23;;;35.00;12.20;;;;;;6157670;28;20658;-62
2022/03/09 09:20:40;;;;;;;10.43;9.43;;;35.90;12.00;;;;;;6158519;28;20237;-61
2022/03/09 09:23:43;;;;;;;10.57;9.52;;;35.80;11.60;;;;;;6156973;28;20677;-62
2022/03/09 09:26:46;;;;;;;9.90;9.02;;;35.40;11.70;;;;;;6173456;28;20225;-61
2022/03/09 09:30:02;;;;;;;10.00;9.18;;;36.40;11.50;;;;;;6180953;28;20234;-61
2022/03/09 09:33:09;;;;;;;9.77;9.07;;;37.30;11.00;;;;;;6177472;28;20233;-62
2022/03/09 09:36:12;;;;;;;10.30;9.40;;;38.20;10.70;;;;;;6180302;28;20246;-62
2022/03/09 09:39:17;;;;;;;10.13;8.50;;;38.00;10.40;;;;;;6180633;28;20240;-62
2022/03/09 09:42:21;;;;;;;10.48;9.63;;;36.80;10.50;;;;;;6181509;28;20222;-61
2022/03/09 09:45:44;;;;;;;9.02;8.32;;;35.50;11.20;;;;;;6180227;28;20348;-62
2022/03/09 09:48:49;;;;;;;9.90;9.05;;;35.20;11.10;;;;;;6180580;28;20246;-62
2022/03/09 09:51:53;;;;;;;9.57;8.70;;;35.20;12.10;;;;;;6180991;28;20451;-62
2022/03/09 09:54:59;;;;;;;9.65;8.85;;;37.00;11.00;;;;;;6180605;28;20230;-61
2022/03/09 09:58:03;;;;;;;9.73;8.93;;;38.00;10.40;;;;;;6180424;28;20694;-61
2022/03/09 10:01:06;;;;;;;9.85;8.93;;;38.70;10.30;;;;;;6180320;28;20238;-61
2022/03/09 10:04:11;;;;;;;9.55;8.68;;;37.90;10.10;;;;;;6180509;28;20250;-62
2022/03/09 10:07:15;;;;;;;10.38;9.38;;;38.40;10.10;;;;;;6180300;28;20580;-62
2022/03/09 10:10:18;;;;;;;10.43;9.45;;;38.60;9.90;;;;;;6179967;28;20248;-61
2022/03/09 10:13:23;;;;;;;9.02;8.15;;;39.20;10.00;;;;;;6161145;28;20239;-61
2022/03/09 10:16:30;;;;;;;9.25;7.93;;;39.70;9.80;;;;;;6156489;29;20237;-61
2022/03/09 10:19:37;;;;;;;9.38;8.48;;;40.00;9.40;;;;;;6155646;29;20230;-61
2022/03/09 10:22:42;;;;;;;8.70;8.00;;;40.00;9.40;;;;;;6154747;28;20227;-62
2022/03/09 10:26:02;;;;;;;8.07;7.57;;;40.90;9.20;;;;;;6157416;28;20239;-62
2022/03/09 10:29:07;;;;;;;8.75;7.43;;;41.20;9.00;;;;;;6180039;28;20241;-62
2022/03/09 10:32:10;;;;;;;8.35;7.75;;;42.00;9.00;;;;;;6179206;28;20537;-62
2022/03/09 10:35:16;;;;;;;7.35;6.75;;;41.50;9.10;;;;;;6176522;28;20217;-64
2022/03/09 10:38:24;;;;;;;7.63;6.80;;;42.00;8.80;;;;;;6180471;28;20565;-63
2022/03/09 10:41:33;;;;;;;7.70;7.18;;;42.60;8.30;;;;;;6179389;28;20197;-63
2022/03/09 10:44:43;;;;;;;9.05;8.25;;;41.50;8.40;;;;;;6179105;28;20301;-63
2022/03/09 10:47:48;;;;;;;8.82;8.07;;;40.50;9.30;;;;;;6178426;28;20266;-61
2022/03/09 10:50:54;;;;;;;6.90;6.38;;;39.90;9.30;;;;;;6178267;28;20240;-62
2022/03/09 10:53:58;;;;;;;7.00;6.38;;;41.50;8.90;;;;;;6179025;28;20244;-63
2022/03/09 10:57:08;;;;;;;6.85;6.28;;;40.70;8.90;;;;;;6178914;28;20248;-62
2022/03/09 11:00:13;;;;;;;7.30;6.72;;;41.60;8.80;;;;;;6178391;28;20257;-61
2022/03/09 11:03:18;;;;;;;6.68;6.07;;;42.70;8.70;;;;;;6178185;28;20225;-62
2022/03/09 11:06:23;;;;;;;6.68;5.53;;;42.70;8.10;;;;;;6178185;28;20545;-62
2022/03/09 11:09:26;;;;;;;6.47;5.97;;;41.80;8.30;;;;;;6178433;28;20230;-61
2022/03/09 11:12:29;;;;;;;6.40;5.80;;;39.00;9.00;;;;;;6165582;28;20231;-61
2022/03/09 11:15:33;;;;;;;6.13;5.53;;;39.00;9.20;;;;;;6163518;28;20248;-61
2022/03/09 11:18:37;;;;;;;5.93;5.53;;;40.40;9.00;;;;;;6177883;28;20233;-60
2022/03/09 11:21:42;;;;;;;6.32;5.72;;;41.00;8.80;;;;;;6177959;28;20233;-60
2022/03/09 11:24:46;;;;;;;9.00;5.47;;;41.70;8.50;;;;;;6177560;28;20237;-60
2022/03/09 11:27:51;;;;;;;5.70;5.30;;;42.10;8.50;;;;;;6177750;28;20230;-62
2022/03/09 11:30:55;;;;;;;5.00;4.60;;;43.10;8.30;;;;;;6177330;28;20677;-61
2022/03/09 11:34:00;;;;;;;5.82;5.43;;;43.80;7.90;;;;;;6177122;28;20233;-61
2022/03/09 11:37:08;;;;;;;6.10;5.65;;;42.50;7.80;;;;;;6177650;28;20628;-60
2022/03/09 11:40:15;;;;;;;6.55;6.05;;;41.90;8.20;;;;;;6177752;28;20237;-61
2022/03/09 11:43:28;;;;;;;6.53;5.93;;;41.90;8.30;;;;;;6168218;28;20671;-61
2022/03/09 11:47:07;;;;;;;5.80;5.40;;;42.60;8.10;;;;;;6176933;28;20245;-61
2022/03/09 11:50:10;;;;;;;5.15;4.75;;;44.00;7.80;;;;;;6176731;28;20254;-61
2022/03/09 11:53:16;;;;;;;6.15;5.65;;;44.90;7.60;;;;;;6176877;28;20301;-61
2022/03/09 11:56:36;;;;;;;5.93;5.07;;;45.20;7.60;;;;;;6177347;28;20221;-61
2022/03/09 11:59:39;;;;;;;5.68;5.18;;;46.80;7.30;;;;;;6176501;28;20237;-61
2022/03/09 12:02:45;;;;;;;5.68;5.28;;;47.50;6.90;;;;;;6176985;28;20233;-61
2022/03/09 12:05:48;;;;;;;7.05;6.30;;;47.20;7.00;;;;;;6177449;28;20300;-61
2022/03/09 12:08:51;;;;;;;6.20;5.70;;;46.10;6.90;;;;;;6177073;28;20518;-61
2022/03/09 12:12:07;;;;;;;6.82;6.22;;;46.00;6.90;;;;;;6169496;28;20241;-61
2022/03/09 12:15:13;;;;;;;6.15;5.65;;;45.80;6.90;;;;;;6152678;28;20238;-62
2022/03/09 12:18:36;;;;;;;6.53;5.95;;;46.00;7.00;;;;;;6152978;29;20226;-62
2022/03/09 12:22:03;;;;;;;6.55;6.05;;;45.60;6.80;;;;;;6153318;29;20226;-62
2022/03/09 12:25:38;;;;;;;6.70;6.20;;;42.30;7.40;;;;;;6152515;29;20231;-61
2022/03/09 12:28:45;;;;;;;6.93;6.32;;;38.60;8.50;;;;;;6153946;29;20234;-60
2022/03/09 12:32:00;;;;;;;6.85;6.25;;;33.20;10.70;;;;;;6153768;29;20230;-62
2022/03/09 12:35:07;;;;;;;6.13;5.73;;;29.90;12.50;;;;;;6150632;29;20671;-60
2022/03/09 12:38:12;;;;;;;8.70;6.03;;;28.10;13.70;;;;;;6150635;29;20234;-61
2022/03/09 12:41:29;;;;;;;6.33;5.80;;;28.90;13.50;;;;;;6152009;28;20229;-61
2022/03/09 12:44:34;;;;;;;6.60;6.00;;;27.60;14.10;;;;;;6150169;28;20287;-61
2022/03/09 12:47:38;;;;;;;5.60;4.93;;;28.60;14.20;;;;;;6157520;28;20222;-62
2022/03/09 12:50:42;;;;;;;5.93;5.43;;;32.70;12.70;;;;;;6156833;28;20234;-62
2022/03/09 12:53:48;;;;;;;6.00;5.50;;;36.40;11.00;;;;;;6157029;29;20246;-62
2022/03/09 12:56:51;;;;;;;6.78;6.07;;;38.00;10.30;;;;;;6157162;28;20230;-62
2022/03/09 12:59:57;;;;;;;5.38;4.88;;;40.10;9.50;;;;;;6165195;28;20233;-62
2022/03/09 13:03:01;;;;;;;6.45;5.85;;;40.70;8.90;;;;;;6181045;28;20245;-62
2022/03/09 13:06:25;;;;;;;6.38;5.88;;;40.20;8.90;;;;;;6180312;28;20273;-62
2022/03/09 13:09:30;;;;;;;5.75;5.35;;;40.70;8.80;;;;;;6179340;28;20237;-61
2022/03/09 13:12:33;;;;;;;6.03;5.40;;;42.40;8.60;;;;;;6179980;28;20256;-62
2022/03/09 13:15:39;;;;;;;6.47;5.97;;;43.60;8.10;;;;;;6179104;28;20234;-61
2022/03/09 13:18:43;;;;;;;5.93;5.53;;;43.30;7.80;;;;;;6179521;28;20233;-62
2022/03/09 13:21:51;;;;;;;7.75;5.43;;;40.60;8.20;;;;;;6177941;28;20230;-61
2022/03/09 13:25:01;;;;;;;5.57;5.07;;;39.20;8.90;;;;;;6178138;28;20720;-61
2022/03/09 13:28:05;;;;;;;6.00;5.50;;;37.40;9.50;;;;;;6178207;28;20249;-61
2022/03/09 13:31:09;;;;;;;6.32;5.32;;;38.20;9.50;;;;;;6177847;28;20230;-61
2022/03/09 13:34:14;;;;;;;5.78;5.28;;;36.00;10.00;;;;;;6177733;28;20240;-60
2022/03/09 13:37:20;;;;;;;6.18;5.68;;;31.80;11.70;;;;;;6179284;28;20226;-61
2022/03/09 13:40:24;;;;;;;5.88;5.38;;;32.00;12.20;;;;;;6180085;28;20264;-62
2022/03/09 13:43:28;;;;;;;5.63;5.15;;;31.90;12.10;;;;;;6180262;28;20252;-63
2022/03/09 13:46:32;;;;;;;5.50;5.00;;;32.20;12.10;;;;;;6179624;28;20678;-62
2022/03/09 13:49:46;;;;;;;5.47;5.07;;;32.00;12.20;;;;;;6178880;28;20246;-60
2022/03/09 13:52:53;;;;;;;5.90;5.40;;;30.90;12.60;;;;;;6174329;28;20246;-60
2022/03/09 13:55:56;;;;;;;5.90;5.50;;;28.90;13.60;;;;;;6179893;28;20237;-60
2022/03/09 13:59:00;;;;;;;6.03;5.50;;;25.60;15.30;;;;;;6179969;28;20232;-59
2022/03/09 14:02:18;;;;;;;5.00;4.60;;;24.10;16.60;;;;;;6179297;28;20230;-60
2022/03/09 14:05:28;;;;;;;6.50;5.90;;;22.30;17.70;;;;;;6178501;28;20298;-59
2022/03/09 14:08:37;;;;;;;5.43;4.43;;;21.30;18.50;;;;;;6178149;28;20249;-59
2022/03/09 14:11:40;;;;;;;7.27;5.57;;;20.00;19.60;;;;;;6177630;28;20867;-59
2022/03/09 14:14:44;;;;;;;5.30;4.90;;;18.90;20.60;;;;;;6177611;28;20246;-59
2022/03/09 14:17:47;;;;;;;5.30;4.80;;;18.00;21.40;;;;;;6177755;28;20226;-59
2022/03/09 14:20:51;;;;;;;6.00;4.20;;;17.60;22.00;;;;;;6177887;28;20675;-59
2022/03/09 14:23:57;;;;;;;4.97;4.47;;;17.20;22.50;;;;;;6178426;28;20240;-59
2022/03/09 14:27:00;;;;;;;5.40;4.90;;;16.70;22.90;;;;;;6154913;29;20466;-62
2022/03/09 14:30:05;;;;;;;4.60;4.20;;;16.60;23.20;;;;;;6154232;29;20971;-59
2022/03/09 14:33:08;;;;;;;5.00;3.57;;;16.80;23.30;;;;;;6154651;29;20552;-59
2022/03/09 14:36:13;;;;;;;4.40;3.80;;;16.60;23.40;;;;;;6154232;28;20478;-58
2022/03/09 14:39:20;;;;;;;4.93;4.53;;;16.30;23.70;;;;;;6154538;29;20475;-59
2022/03/09 14:42:23;;;;;;;6.20;3.90;;;16.10;23.80;;;;;;6154741;29;20490;-58
2022/03/09 14:45:26;;;;;;;7.33;4.83;;;16.00;24.10;;;;;;6154758;29;20486;-58
2022/03/09 14:48:29;;;;;;;8.10;5.53;;;16.10;23.90;;;;;;6154317;28;20537;-60
2022/03/09 14:51:32;;;;;;;4.73;4.23;;;15.90;24.10;;;;;;6154127;28;20486;-59
2022/03/09 14:54:37;;;;;;;5.03;4.53;;;15.70;24.50;;;;;;6149845;28;20489;-59
2022/03/09 14:57:43;;;;;;;4.67;3.97;;;15.50;24.40;;;;;;6154014;29;20486;-59
2022/03/09 15:00:48;;;;;;;6.30;4.93;;;15.50;24.80;;;;;;6176029;28;20555;-59
2022/03/09 15:03:53;;;;;;;4.17;3.77;;;15.30;24.90;;;;;;6177959;28;20785;-59
2022/03/09 15:07:16;;;;;;;7.23;4.87;;;15.40;25.00;;;;;;6179821;28;20524;-59
2022/03/09 15:10:21;;;;;;;8.80;5.30;;;14.90;25.30;;;;;;6178865;28;20500;-59
2022/03/09 15:13:31;;;;;;;9.93;5.10;;;14.70;25.80;;;;;;6177560;28;20856;-59
2022/03/09 15:16:34;;;;;;;7.37;5.53;;;14.60;25.90;;;;;;6177694;28;20492;-59
2022/03/09 15:19:38;;;;;;;5.63;5.13;;;14.40;26.10;;;;;;6177401;28;20835;-59
2022/03/09 15:22:41;;;;;;;6.30;5.70;;;14.50;26.50;;;;;;6177963;28;20482;-59
2022/03/09 15:26:06;;;;;;;5.10;4.60;;;14.50;26.10;;;;;;6168142;28;20515;-58
2022/03/09 15:29:09;;;;;;;6.53;5.37;;;14.20;26.30;;;;;;6154092;29;20830;-59
2022/03/09 15:32:12;;;;;;;5.23;4.73;;;14.00;26.60;;;;;;6153810;29;20487;-59
2022/03/09 15:35:15;;;;;;;5.80;5.20;;;13.80;26.80;;;;;;6153130;28;20955;-58
2022/03/09 15:38:38;;;;;;;5.00;4.50;;;13.80;26.80;;;;;;6153603;29;20493;-58
2022/03/09 15:41:43;;;;;;;6.80;4.83;;;13.80;26.90;;;;;;6153721;29;20467;-59
2022/03/09 15:44:46;;;;;;;4.80;4.40;;;13.80;27.10;;;;;;6153591;29;20467;-58
2022/03/09 15:47:49;;;;;;;5.53;5.03;;;13.90;27.10;;;;;;6153552;29;20478;-58
2022/03/09 15:50:52;;;;;;;8.27;5.00;;;13.80;27.10;;;;;;6153261;28;20474;-58
2022/03/09 15:53:55;;;;;;;5.40;4.90;;;13.60;27.50;;;;;;6153646;29;20830;-58
2022/03/09 15:57:00;;;;;;;5.90;5.27;;;13.50;27.50;;;;;;6154304;28;20482;-58
2022/03/09 16:00:04;;;;;;;8.03;4.23;;;13.60;27.60;;;;;;6160581;28;20786;-59
2022/03/09 16:03:07;;;;;;;5.70;3.77;;;13.70;27.50;;;;;;6176873;28;20477;-59
2022/03/09 16:06:14;;;;;;;4.60;4.20;;;13.70;27.40;;;;;;6177019;28;20488;-59
2022/03/09 16:09:17;;;;;;;4.80;4.30;;;13.70;27.40;;;;;;6176815;28;20864;-59
2022/03/09 16:12:21;;;;;;;8.40;4.97;;;13.70;27.40;;;;;;6165900;28;20475;-59